sensor_id;sensor_type;location;lat;lon;timestamp;P1;durP1;ratioP1;P2;durP2;ratioP2
45909;SDS011;31622;55.416;37.840;2023-02-13T00:00:32;2.38;;;1.33;;
45909;SDS011;31622;55.416;37.840;2023-02-13T00:02:59;5.72;;;1.60;;
45909;SDS011;31622;55.416;37.840;2023-02-13T00:05:24;3.42;;;1.60;;
45909;SDS011;31622;55.416;37.840;2023-02-13T00:07:50;4.15;;;1.73;;
45909;SDS011;31622;55.416;37.840;2023-02-13T00:10:16;2.80;;;1.45;;
45909;SDS011;31622;55.416;37.840;2023-02-13T00:12:42;3.65;;;1.70;;
45909;SDS011;31622;55.416;37.840;2023-02-13T00:15:07;3.60;;;1.35;;
45909;SDS011;31622;55.416;37.840;2023-02-13T00:17:34;2.63;;;1.33;;
45909;SDS011;31622;55.416;37.840;2023-02-13T00:20:00;2.83;;;1.50;;
45909;SDS011;31622;55.416;37.840;2023-02-13T00:22:25;3.97;;;1.60;;
45909;SDS011;31622;55.416;37.840;2023-02-13T00:24:51;3.00;;;1.60;;
45909;SDS011;31622;55.416;37.840;2023-02-13T00:27:17;3.40;;;1.60;;
45909;SDS011;31622;55.416;37.840;2023-02-13T00:29:43;2.22;;;1.48;;
45909;SDS011;31622;55.416;37.840;2023-02-13T00:32:09;3.85;;;1.67;;
45909;SDS011;31622;55.416;37.840;2023-02-13T00:34:34;3.72;;;1.40;;
45909;SDS011;31622;55.416;37.840;2023-02-13T00:37:01;3.17;;;1.52;;
45909;SDS011;31622;55.416;37.840;2023-02-13T00:39:28;3.40;;;1.25;;
45909;SDS011;31622;55.416;37.840;2023-02-13T00:41:54;4.18;;;1.50;;
45909;SDS011;31622;55.416;37.840;2023-02-13T00:44:19;3.67;;;1.55;;
45909;SDS011;31622;55.416;37.840;2023-02-13T00:46:45;3.22;;;1.40;;
45909;SDS011;31622;55.416;37.840;2023-02-13T00:49:11;3.53;;;1.60;;
45909;SDS011;31622;55.416;37.840;2023-02-13T00:51:36;3.70;;;1.70;;
45909;SDS011;31622;55.416;37.840;2023-02-13T00:54:02;3.78;;;1.52;;
45909;SDS011;31622;55.416;37.840;2023-02-13T00:56:28;3.80;;;1.77;;
45909;SDS011;31622;55.416;37.840;2023-02-13T00:58:53;3.10;;;1.70;;
45909;SDS011;31622;55.416;37.840;2023-02-13T01:01:19;3.58;;;1.63;;
45909;SDS011;31622;55.416;37.840;2023-02-13T01:03:45;3.40;;;1.70;;
45909;SDS011;31622;55.416;37.840;2023-02-13T01:06:11;3.47;;;1.63;;
45909;SDS011;31622;55.416;37.840;2023-02-13T01:08:39;5.03;;;1.98;;
45909;SDS011;31622;55.416;37.840;2023-02-13T01:11:07;2.67;;;1.40;;
45909;SDS011;31622;55.416;37.840;2023-02-13T01:13:34;3.47;;;1.55;;
45909;SDS011;31622;55.416;37.840;2023-02-13T01:16:00;4.22;;;1.58;;
45909;SDS011;31622;55.416;37.840;2023-02-13T01:18:26;3.58;;;1.83;;
45909;SDS011;31622;55.416;37.840;2023-02-13T01:21:00;3.58;;;1.88;;
45909;SDS011;31622;55.416;37.840;2023-02-13T01:23:31;3.13;;;1.80;;
45909;SDS011;31622;55.416;37.840;2023-02-13T01:25:58;2.83;;;1.80;;
45909;SDS011;31622;55.416;37.840;2023-02-13T01:28:24;3.22;;;1.85;;
45909;SDS011;31622;55.416;37.840;2023-02-13T01:30:56;3.17;;;1.95;;
45909;SDS011;31622;55.416;37.840;2023-02-13T01:35:49;4.88;;;1.60;;
45909;SDS011;31622;55.416;37.840;2023-02-13T01:38:15;2.45;;;1.55;;
45909;SDS011;31622;55.416;37.840;2023-02-13T01:40:48;3.60;;;1.67;;
45909;SDS011;31622;55.416;37.840;2023-02-13T01:43:15;3.05;;;1.30;;
45909;SDS011;31622;55.416;37.840;2023-02-13T01:45:41;2.28;;;1.40;;
45909;SDS011;31622;55.416;37.840;2023-02-13T01:48:16;3.28;;;2.13;;
45909;SDS011;31622;55.416;37.840;2023-02-13T01:56:02;2.92;;;1.48;;
45909;SDS011;31622;55.416;37.840;2023-02-13T01:58:31;2.28;;;1.38;;
45909;SDS011;31622;55.416;37.840;2023-02-13T02:00:59;4.43;;;1.77;;
45909;SDS011;31622;55.416;37.840;2023-02-13T02:03:30;3.90;;;1.65;;
45909;SDS011;31622;55.416;37.840;2023-02-13T02:06:02;2.97;;;1.30;;
45909;SDS011;31622;55.416;37.840;2023-02-13T02:08:29;2.75;;;1.63;;
45909;SDS011;31622;55.416;37.840;2023-02-13T02:10:56;3.08;;;1.70;;
45909;SDS011;31622;55.416;37.840;2023-02-13T02:13:24;3.92;;;1.58;;
45909;SDS011;31622;55.416;37.840;2023-02-13T02:15:50;3.17;;;1.50;;
45909;SDS011;31622;55.416;37.840;2023-02-13T02:18:17;3.13;;;1.70;;
45909;SDS011;31622;55.416;37.840;2023-02-13T02:26:31;3.88;;;2.30;;
45909;SDS011;31622;55.416;37.840;2023-02-13T02:40:36;4.82;;;2.00;;
45909;SDS011;31622;55.416;37.840;2023-02-13T02:54:22;4.30;;;1.50;;
45909;SDS011;31622;55.416;37.840;2023-02-13T02:57:12;3.13;;;1.65;;
45909;SDS011;31622;55.416;37.840;2023-02-13T02:59:45;3.40;;;1.67;;
45909;SDS011;31622;55.416;37.840;2023-02-13T03:02:29;2.47;;;1.30;;
45909;SDS011;31622;55.416;37.840;2023-02-13T03:05:26;2.63;;;1.60;;
45909;SDS011;31622;55.416;37.840;2023-02-13T03:08:13;2.75;;;1.55;;
45909;SDS011;31622;55.416;37.840;2023-02-13T03:10:39;2.97;;;1.58;;
45909;SDS011;31622;55.416;37.840;2023-02-13T03:13:41;2.63;;;1.23;;
45909;SDS011;31622;55.416;37.840;2023-02-13T03:16:14;2.95;;;1.30;;
45909;SDS011;31622;55.416;37.840;2023-02-13T03:19:01;3.75;;;1.58;;
45909;SDS011;31622;55.416;37.840;2023-02-13T03:24:35;3.05;;;1.30;;
45909;SDS011;31622;55.416;37.840;2023-02-13T03:27:10;2.78;;;1.33;;
45909;SDS011;31622;55.416;37.840;2023-02-13T03:30:04;2.78;;;1.30;;
45909;SDS011;31622;55.416;37.840;2023-02-13T03:33:04;3.05;;;1.30;;
45909;SDS011;31622;55.416;37.840;2023-02-13T03:35:52;4.35;;;1.48;;
45909;SDS011;31622;55.416;37.840;2023-02-13T03:38:44;3.45;;;1.40;;
45909;SDS011;31622;55.416;37.840;2023-02-13T03:41:17;3.17;;;1.40;;
45909;SDS011;31622;55.416;37.840;2023-02-13T03:46:21;3.35;;;1.40;;
45909;SDS011;31622;55.416;37.840;2023-02-13T03:48:49;2.92;;;1.20;;
45909;SDS011;31622;55.416;37.840;2023-02-13T03:51:35;3.20;;;1.60;;
45909;SDS011;31622;55.416;37.840;2023-02-13T03:54:04;5.32;;;1.70;;
45909;SDS011;31622;55.416;37.840;2023-02-13T03:56:33;4.32;;;1.63;;
45909;SDS011;31622;55.416;37.840;2023-02-13T03:59:20;5.03;;;3.58;;
45909;SDS011;31622;55.416;37.840;2023-02-13T04:01:49;2.55;;;1.30;;
45909;SDS011;31622;55.416;37.840;2023-02-13T04:04:31;4.03;;;1.73;;
45909;SDS011;31622;55.416;37.840;2023-02-13T04:07:04;3.05;;;1.30;;
45909;SDS011;31622;55.416;37.840;2023-02-13T04:09:32;3.40;;;1.60;;
45909;SDS011;31622;55.416;37.840;2023-02-13T04:12:05;3.05;;;1.50;;
45909;SDS011;31622;55.416;37.840;2023-02-13T04:14:55;2.70;;;1.30;;
45909;SDS011;31622;55.416;37.840;2023-02-13T04:17:24;2.78;;;1.15;;
45909;SDS011;31622;55.416;37.840;2023-02-13T04:19:54;3.25;;;1.60;;
45909;SDS011;31622;55.416;37.840;2023-02-13T04:22:20;3.33;;;1.65;;
45909;SDS011;31622;55.416;37.840;2023-02-13T04:24:45;3.25;;;1.60;;
45909;SDS011;31622;55.416;37.840;2023-02-13T04:27:12;2.45;;;1.40;;
45909;SDS011;31622;55.416;37.840;2023-02-13T04:29:39;3.83;;;1.63;;
45909;SDS011;31622;55.416;37.840;2023-02-13T04:32:05;3.00;;;1.70;;
45909;SDS011;31622;55.416;37.840;2023-02-13T04:34:31;4.35;;;1.88;;
45909;SDS011;31622;55.416;37.840;2023-02-13T04:36:57;3.33;;;1.48;;
45909;SDS011;31622;55.416;37.840;2023-02-13T04:39:22;2.33;;;1.33;;
45909;SDS011;31622;55.416;37.840;2023-02-13T04:41:48;2.55;;;1.30;;
45909;SDS011;31622;55.416;37.840;2023-02-13T04:44:14;6.53;;;1.75;;
45909;SDS011;31622;55.416;37.840;2023-02-13T04:46:39;5.85;;;2.33;;
45909;SDS011;31622;55.416;37.840;2023-02-13T04:49:05;5.32;;;1.95;;
45909;SDS011;31622;55.416;37.840;2023-02-13T04:51:31;4.85;;;1.75;;
45909;SDS011;31622;55.416;37.840;2023-02-13T04:53:56;6.28;;;2.47;;
45909;SDS011;31622;55.416;37.840;2023-02-13T04:56:22;14.30;;;2.17;;
45909;SDS011;31622;55.416;37.840;2023-02-13T04:58:48;8.95;;;2.00;;
45909;SDS011;31622;55.416;37.840;2023-02-13T05:01:14;4.80;;;2.05;;
45909;SDS011;31622;55.416;37.840;2023-02-13T05:03:41;5.50;;;2.10;;
45909;SDS011;31622;55.416;37.840;2023-02-13T05:06:06;10.23;;;4.00;;
45909;SDS011;31622;55.416;37.840;2023-02-13T05:08:32;9.75;;;4.20;;
45909;SDS011;31622;55.416;37.840;2023-02-13T05:10:58;9.93;;;4.53;;
45909;SDS011;31622;55.416;37.840;2023-02-13T05:13:24;7.35;;;3.15;;
45909;SDS011;31622;55.416;37.840;2023-02-13T05:15:50;7.10;;;3.38;;
45909;SDS011;31622;55.416;37.840;2023-02-13T05:18:17;8.40;;;3.30;;
45909;SDS011;31622;55.416;37.840;2023-02-13T05:20:43;7.25;;;3.15;;
45909;SDS011;31622;55.416;37.840;2023-02-13T05:23:12;6.05;;;2.55;;
45909;SDS011;31622;55.416;37.840;2023-02-13T05:25:48;4.10;;;1.98;;
45909;SDS011;31622;55.416;37.840;2023-02-13T05:28:14;5.15;;;2.00;;
45909;SDS011;31622;55.416;37.840;2023-02-13T05:30:58;4.88;;;2.45;;
45909;SDS011;31622;55.416;37.840;2023-02-13T05:33:25;5.85;;;2.72;;
45909;SDS011;31622;55.416;37.840;2023-02-13T05:35:51;6.13;;;2.17;;
45909;SDS011;31622;55.416;37.840;2023-02-13T05:38:16;4.60;;;1.75;;
45909;SDS011;31622;55.416;37.840;2023-02-13T05:40:42;3.13;;;1.75;;
45909;SDS011;31622;55.416;37.840;2023-02-13T05:43:08;7.25;;;2.40;;
45909;SDS011;31622;55.416;37.840;2023-02-13T05:45:33;4.97;;;2.50;;
45909;SDS011;31622;55.416;37.840;2023-02-13T05:47:59;5.32;;;2.58;;
45909;SDS011;31622;55.416;37.840;2023-02-13T05:50:25;8.38;;;2.92;;
45909;SDS011;31622;55.416;37.840;2023-02-13T05:52:51;5.18;;;2.63;;
45909;SDS011;31622;55.416;37.840;2023-02-13T05:55:16;4.93;;;2.85;;
45909;SDS011;31622;55.416;37.840;2023-02-13T05:57:42;6.93;;;3.10;;
45909;SDS011;31622;55.416;37.840;2023-02-13T06:00:08;6.00;;;2.60;;
45909;SDS011;31622;55.416;37.840;2023-02-13T06:02:34;5.47;;;2.75;;
45909;SDS011;31622;55.416;37.840;2023-02-13T06:04:59;4.47;;;2.42;;
45909;SDS011;31622;55.416;37.840;2023-02-13T06:07:25;6.20;;;2.30;;
45909;SDS011;31622;55.416;37.840;2023-02-13T06:09:52;6.60;;;2.80;;
45909;SDS011;31622;55.416;37.840;2023-02-13T06:12:18;7.13;;;3.00;;
45909;SDS011;31622;55.416;37.840;2023-02-13T06:14:43;6.40;;;2.35;;
45909;SDS011;31622;55.416;37.840;2023-02-13T06:17:09;5.28;;;2.95;;
45909;SDS011;31622;55.416;37.840;2023-02-13T06:19:35;4.78;;;2.17;;
45909;SDS011;31622;55.416;37.840;2023-02-13T06:22:00;5.38;;;2.47;;
45909;SDS011;31622;55.416;37.840;2023-02-13T06:24:26;4.63;;;2.40;;
45909;SDS011;31622;55.416;37.840;2023-02-13T06:26:52;4.68;;;2.25;;
45909;SDS011;31622;55.416;37.840;2023-02-13T06:29:17;5.90;;;1.88;;
45909;SDS011;31622;55.416;37.840;2023-02-13T06:31:43;4.28;;;2.20;;
45909;SDS011;31622;55.416;37.840;2023-02-13T06:34:09;5.82;;;1.80;;
45909;SDS011;31622;55.416;37.840;2023-02-13T06:36:34;6.18;;;1.85;;
45909;SDS011;31622;55.416;37.840;2023-02-13T06:39:02;4.30;;;1.52;;
45909;SDS011;31622;55.416;37.840;2023-02-13T06:41:28;3.85;;;1.52;;
45909;SDS011;31622;55.416;37.840;2023-02-13T06:43:54;4.55;;;1.70;;
45909;SDS011;31622;55.416;37.840;2023-02-13T06:46:19;6.60;;;2.22;;
45909;SDS011;31622;55.416;37.840;2023-02-13T06:48:45;3.35;;;1.70;;
45909;SDS011;31622;55.416;37.840;2023-02-13T06:51:11;3.38;;;1.70;;
45909;SDS011;31622;55.416;37.840;2023-02-13T06:53:36;3.67;;;1.88;;
45909;SDS011;31622;55.416;37.840;2023-02-13T06:56:04;3.83;;;1.83;;
45909;SDS011;31622;55.416;37.840;2023-02-13T06:58:32;5.47;;;1.55;;
45909;SDS011;31622;55.416;37.840;2023-02-13T07:00:58;4.05;;;1.75;;
45909;SDS011;31622;55.416;37.840;2023-02-13T07:03:24;4.47;;;1.90;;
45909;SDS011;31622;55.416;37.840;2023-02-13T07:05:50;3.25;;;1.55;;
45909;SDS011;31622;55.416;37.840;2023-02-13T07:08:16;2.38;;;1.35;;
45909;SDS011;31622;55.416;37.840;2023-02-13T07:10:42;5.00;;;1.88;;
45909;SDS011;31622;55.416;37.840;2023-02-13T07:13:08;3.05;;;1.92;;
45909;SDS011;31622;55.416;37.840;2023-02-13T07:15:35;3.03;;;1.60;;
45909;SDS011;31622;55.416;37.840;2023-02-13T07:18:02;3.33;;;1.55;;
45909;SDS011;31622;55.416;37.840;2023-02-13T07:20:28;3.22;;;1.70;;
45909;SDS011;31622;55.416;37.840;2023-02-13T07:22:57;4.22;;;1.60;;
45909;SDS011;31622;55.416;37.840;2023-02-13T07:25:24;3.65;;;1.95;;
45909;SDS011;31622;55.416;37.840;2023-02-13T07:27:50;3.47;;;1.60;;
45909;SDS011;31622;55.416;37.840;2023-02-13T07:30:15;4.50;;;1.95;;
45909;SDS011;31622;55.416;37.840;2023-02-13T07:32:41;3.08;;;1.77;;
45909;SDS011;31622;55.416;37.840;2023-02-13T07:35:07;3.90;;;1.80;;
45909;SDS011;31622;55.416;37.840;2023-02-13T07:37:33;5.45;;;1.95;;
45909;SDS011;31622;55.416;37.840;2023-02-13T07:39:58;5.47;;;2.22;;
45909;SDS011;31622;55.416;37.840;2023-02-13T07:42:24;3.22;;;2.22;;
45909;SDS011;31622;55.416;37.840;2023-02-13T07:44:50;3.90;;;2.05;;
45909;SDS011;31622;55.416;37.840;2023-02-13T07:47:16;4.68;;;2.03;;
45909;SDS011;31622;55.416;37.840;2023-02-13T07:49:41;3.90;;;1.90;;
45909;SDS011;31622;55.416;37.840;2023-02-13T07:52:07;3.22;;;1.67;;
45909;SDS011;31622;55.416;37.840;2023-02-13T07:54:33;3.60;;;1.67;;
45909;SDS011;31622;55.416;37.840;2023-02-13T07:57:01;4.22;;;2.45;;
45909;SDS011;31622;55.416;37.840;2023-02-13T07:59:28;5.43;;;2.40;;
45909;SDS011;31622;55.416;37.840;2023-02-13T08:01:54;4.25;;;2.35;;
45909;SDS011;31622;55.416;37.840;2023-02-13T08:04:19;3.75;;;2.08;;
45909;SDS011;31622;55.416;37.840;2023-02-13T08:06:45;4.40;;;2.35;;
45909;SDS011;31622;55.416;37.840;2023-02-13T08:09:18;4.65;;;2.55;;
45909;SDS011;31622;55.416;37.840;2023-02-13T08:12:03;5.60;;;2.55;;
45909;SDS011;31622;55.416;37.840;2023-02-13T08:14:30;5.60;;;2.20;;
45909;SDS011;31622;55.416;37.840;2023-02-13T08:16:57;4.18;;;2.13;;
45909;SDS011;31622;55.416;37.840;2023-02-13T08:19:23;3.92;;;2.28;;
45909;SDS011;31622;55.416;37.840;2023-02-13T08:21:49;3.40;;;2.05;;
45909;SDS011;31622;55.416;37.840;2023-02-13T08:24:14;4.30;;;2.25;;
45909;SDS011;31622;55.416;37.840;2023-02-13T08:26:40;13.38;;;2.70;;
45909;SDS011;31622;55.416;37.840;2023-02-13T08:29:06;6.60;;;2.35;;
45909;SDS011;31622;55.416;37.840;2023-02-13T08:31:32;9.93;;;3.08;;
45909;SDS011;31622;55.416;37.840;2023-02-13T08:33:58;4.97;;;2.15;;
45909;SDS011;31622;55.416;37.840;2023-02-13T08:36:23;7.22;;;2.67;;
45909;SDS011;31622;55.416;37.840;2023-02-13T08:38:49;9.75;;;2.80;;
45909;SDS011;31622;55.416;37.840;2023-02-13T08:41:15;8.35;;;2.72;;
45909;SDS011;31622;55.416;37.840;2023-02-13T08:43:46;5.15;;;2.80;;
45909;SDS011;31622;55.416;37.840;2023-02-13T08:46:13;5.85;;;2.00;;
45909;SDS011;31622;55.416;37.840;2023-02-13T08:48:39;3.80;;;2.10;;
45909;SDS011;31622;55.416;37.840;2023-02-13T08:51:08;7.13;;;2.40;;
45909;SDS011;31622;55.416;37.840;2023-02-13T08:53:36;6.47;;;2.42;;
45909;SDS011;31622;55.416;37.840;2023-02-13T08:56:02;5.70;;;2.50;;
45909;SDS011;31622;55.416;37.840;2023-02-13T08:58:28;5.93;;;2.20;;
45909;SDS011;31622;55.416;37.840;2023-02-13T09:00:54;5.50;;;2.47;;
45909;SDS011;31622;55.416;37.840;2023-02-13T09:03:20;3.85;;;2.20;;
45909;SDS011;31622;55.416;37.840;2023-02-13T09:05:46;5.10;;;2.22;;
45909;SDS011;31622;55.416;37.840;2023-02-13T09:08:12;4.50;;;2.10;;
45909;SDS011;31622;55.416;37.840;2023-02-13T09:10:38;3.63;;;1.90;;
45909;SDS011;31622;55.416;37.840;2023-02-13T09:13:05;5.78;;;2.63;;
45909;SDS011;31622;55.416;37.840;2023-02-13T09:15:31;4.95;;;1.92;;
45909;SDS011;31622;55.416;37.840;2023-02-13T09:17:57;5.38;;;2.10;;
45909;SDS011;31622;55.416;37.840;2023-02-13T09:20:23;3.65;;;2.20;;
45909;SDS011;31622;55.416;37.840;2023-02-13T09:22:49;5.72;;;2.05;;
45909;SDS011;31622;55.416;37.840;2023-02-13T09:25:15;3.63;;;2.00;;
45909;SDS011;31622;55.416;37.840;2023-02-13T09:27:40;4.30;;;2.47;;
45909;SDS011;31622;55.416;37.840;2023-02-13T09:30:06;6.07;;;2.25;;
45909;SDS011;31622;55.416;37.840;2023-02-13T09:32:33;3.28;;;1.70;;
45909;SDS011;31622;55.416;37.840;2023-02-13T09:34:59;3.53;;;2.20;;
45909;SDS011;31622;55.416;37.840;2023-02-13T09:37:25;4.97;;;2.25;;
45909;SDS011;31622;55.416;37.840;2023-02-13T09:39:51;5.50;;;2.42;;
45909;SDS011;31622;55.416;37.840;2023-02-13T09:42:18;7.10;;;2.40;;
45909;SDS011;31622;55.416;37.840;2023-02-13T09:44:49;3.72;;;1.90;;
45909;SDS011;31622;55.416;37.840;2023-02-13T09:47:27;3.97;;;1.92;;
45909;SDS011;31622;55.416;37.840;2023-02-13T09:52:48;4.03;;;2.20;;
45909;SDS011;31622;55.416;37.840;2023-02-13T09:55:23;3.60;;;1.98;;
45909;SDS011;31622;55.416;37.840;2023-02-13T09:58:06;4.78;;;2.58;;
45909;SDS011;31622;55.416;37.840;2023-02-13T10:00:40;4.82;;;2.50;;
45909;SDS011;31622;55.416;37.840;2023-02-13T10:11:31;5.03;;;2.40;;
45909;SDS011;31622;55.416;37.840;2023-02-13T10:16:57;3.80;;;2.28;;
45909;SDS011;31622;55.416;37.840;2023-02-13T10:19:28;5.93;;;2.65;;
45909;SDS011;31622;55.416;37.840;2023-02-13T10:22:15;4.03;;;2.10;;
45909;SDS011;31622;55.416;37.840;2023-02-13T10:27:27;5.65;;;2.30;;
45909;SDS011;31622;55.416;37.840;2023-02-13T10:32:45;2.67;;;1.63;;
45909;SDS011;31622;55.416;37.840;2023-02-13T10:35:47;5.32;;;1.98;;
45909;SDS011;31622;55.416;37.840;2023-02-13T10:38:16;6.60;;;1.88;;
45909;SDS011;31622;55.416;37.840;2023-02-13T10:49:50;4.38;;;2.20;;
45909;SDS011;31622;55.416;37.840;2023-02-13T10:52:41;6.32;;;2.10;;
45909;SDS011;31622;55.416;37.840;2023-02-13T10:58:01;3.13;;;1.70;;
45909;SDS011;31622;55.416;37.840;2023-02-13T11:03:26;6.15;;;1.40;;
45909;SDS011;31622;55.416;37.840;2023-02-13T11:05:53;3.30;;;1.50;;
45909;SDS011;31622;55.416;37.840;2023-02-13T11:10:47;3.38;;;1.80;;
45909;SDS011;31622;55.416;37.840;2023-02-13T11:13:17;4.80;;;2.08;;
45909;SDS011;31622;55.416;37.840;2023-02-13T11:16:03;2.78;;;1.60;;
45909;SDS011;31622;55.416;37.840;2023-02-13T11:18:31;5.47;;;1.88;;
45909;SDS011;31622;55.416;37.840;2023-02-13T11:24:00;3.42;;;1.80;;
45909;SDS011;31622;55.416;37.840;2023-02-13T11:26:33;3.08;;;1.85;;
45909;SDS011;31622;55.416;37.840;2023-02-13T11:29:03;3.67;;;2.17;;
45909;SDS011;31622;55.416;37.840;2023-02-13T11:31:35;3.25;;;1.83;;
45909;SDS011;31622;55.416;37.840;2023-02-13T11:36:47;3.55;;;1.90;;
45909;SDS011;31622;55.416;37.840;2023-02-13T11:39:17;4.07;;;2.20;;
45909;SDS011;31622;55.416;37.840;2023-02-13T11:41:47;3.60;;;1.95;;
45909;SDS011;31622;55.416;37.840;2023-02-13T11:44:17;3.65;;;2.10;;
45909;SDS011;31622;55.416;37.840;2023-02-13T11:49:30;3.38;;;1.70;;
45909;SDS011;31622;55.416;37.840;2023-02-13T11:51:58;3.45;;;1.70;;
45909;SDS011;31622;55.416;37.840;2023-02-13T11:57:18;3.50;;;2.00;;
45909;SDS011;31622;55.416;37.840;2023-02-13T11:59:48;3.70;;;1.77;;
45909;SDS011;31622;55.416;37.840;2023-02-13T12:02:17;5.07;;;2.10;;
45909;SDS011;31622;55.416;37.840;2023-02-13T12:04:51;5.03;;;1.88;;
45909;SDS011;31622;55.416;37.840;2023-02-13T12:07:22;2.72;;;1.88;;
45909;SDS011;31622;55.416;37.840;2023-02-13T12:10:00;2.67;;;1.67;;
45909;SDS011;31622;55.416;37.840;2023-02-13T12:12:43;4.32;;;1.80;;
45909;SDS011;31622;55.416;37.840;2023-02-13T12:15:16;4.53;;;1.80;;
45909;SDS011;31622;55.416;37.840;2023-02-13T12:17:44;3.72;;;1.67;;
45909;SDS011;31622;55.416;37.840;2023-02-13T12:20:13;4.95;;;2.13;;
45909;SDS011;31622;55.416;37.840;2023-02-13T12:28:14;4.32;;;1.98;;
45909;SDS011;31622;55.416;37.840;2023-02-13T12:39:17;3.83;;;1.92;;
45909;SDS011;31622;55.416;37.840;2023-02-13T12:47:29;4.18;;;1.65;;
45909;SDS011;31622;55.416;37.840;2023-02-13T13:00:53;3.28;;;1.80;;
45909;SDS011;31622;55.416;37.840;2023-02-13T13:03:32;3.50;;;1.60;;
45909;SDS011;31622;55.416;37.840;2023-02-13T13:09:31;3.83;;;1.90;;
45909;SDS011;31622;55.416;37.840;2023-02-13T13:17:53;3.65;;;1.75;;
45909;SDS011;31622;55.416;37.840;2023-02-13T13:23:45;4.45;;;1.88;;
45909;SDS011;31622;55.416;37.840;2023-02-13T13:28:46;4.22;;;1.73;;
45909;SDS011;31622;55.416;37.840;2023-02-13T13:31:14;5.90;;;2.00;;
45909;SDS011;31622;55.416;37.840;2023-02-13T13:33:44;3.55;;;1.92;;
45909;SDS011;31622;55.416;37.840;2023-02-13T13:39:15;3.83;;;1.77;;
45909;SDS011;31622;55.416;37.840;2023-02-13T13:44:32;3.80;;;1.70;;
45909;SDS011;31622;55.416;37.840;2023-02-13T13:50:04;3.90;;;1.58;;
45909;SDS011;31622;55.416;37.840;2023-02-13T13:52:32;2.95;;;1.48;;
45909;SDS011;31622;55.416;37.840;2023-02-13T13:55:01;4.53;;;1.60;;
45909;SDS011;31622;55.416;37.840;2023-02-13T14:02:43;3.53;;;1.42;;
45909;SDS011;31622;55.416;37.840;2023-02-13T14:05:18;3.28;;;1.48;;
45909;SDS011;31622;55.416;37.840;2023-02-13T14:07:44;3.28;;;1.60;;
45909;SDS011;31622;55.416;37.840;2023-02-13T14:13:02;2.17;;;1.35;;
45909;SDS011;31622;55.416;37.840;2023-02-13T14:20:37;3.17;;;1.60;;
45909;SDS011;31622;55.416;37.840;2023-02-13T14:26:35;2.90;;;1.38;;
45909;SDS011;31622;55.416;37.840;2023-02-13T14:31:41;2.58;;;1.40;;
45909;SDS011;31622;55.416;37.840;2023-02-13T14:34:16;2.13;;;1.00;;
45909;SDS011;31622;55.416;37.840;2023-02-13T14:36:45;2.25;;;1.10;;
45909;SDS011;31622;55.416;37.840;2023-02-13T14:41:41;2.30;;;1.10;;
45909;SDS011;31622;55.416;37.840;2023-02-13T14:52:22;1.63;;;1.00;;
45909;SDS011;31622;55.416;37.840;2023-02-13T14:54:57;2.35;;;1.08;;
45909;SDS011;31622;55.416;37.840;2023-02-13T14:57:28;2.42;;;1.33;;
45909;SDS011;31622;55.416;37.840;2023-02-13T15:00:30;5.03;;;1.10;;
45909;SDS011;31622;55.416;37.840;2023-02-13T15:03:19;2.38;;;1.20;;
45909;SDS011;31622;55.416;37.840;2023-02-13T15:05:51;2.05;;;1.05;;
45909;SDS011;31622;55.416;37.840;2023-02-13T15:08:21;3.42;;;1.13;;
45909;SDS011;31622;55.416;37.840;2023-02-13T15:10:51;3.10;;;1.00;;
45909;SDS011;31622;55.416;37.840;2023-02-13T15:13:34;1.92;;;1.20;;
45909;SDS011;31622;55.416;37.840;2023-02-13T15:16:05;3.03;;;1.23;;
45909;SDS011;31622;55.416;37.840;2023-02-13T15:21:13;2.67;;;1.10;;
45909;SDS011;31622;55.416;37.840;2023-02-13T15:23:40;1.65;;;1.00;;
45909;SDS011;31622;55.416;37.840;2023-02-13T15:26:06;3.20;;;0.98;;
45909;SDS011;31622;55.416;37.840;2023-02-13T15:28:33;1.88;;;1.20;;
45909;SDS011;31622;55.416;37.840;2023-02-13T15:31:03;2.97;;;1.30;;
45909;SDS011;31622;55.416;37.840;2023-02-13T15:33:34;1.80;;;1.10;;
45909;SDS011;31622;55.416;37.840;2023-02-13T15:36:15;3.90;;;2.00;;
45909;SDS011;31622;55.416;37.840;2023-02-13T15:38:45;2.35;;;1.13;;
45909;SDS011;31622;55.416;37.840;2023-02-13T15:41:18;3.28;;;1.60;;
45909;SDS011;31622;55.416;37.840;2023-02-13T15:43:55;3.65;;;1.85;;
45909;SDS011;31622;55.416;37.840;2023-02-13T15:46:34;2.97;;;1.42;;
45909;SDS011;31622;55.416;37.840;2023-02-13T15:49:07;2.17;;;1.42;;
45909;SDS011;31622;55.416;37.840;2023-02-13T15:51:37;3.35;;;2.10;;
45909;SDS011;31622;55.416;37.840;2023-02-13T15:54:04;3.20;;;1.90;;
45909;SDS011;31622;55.416;37.840;2023-02-13T15:56:48;4.35;;;2.38;;
45909;SDS011;31622;55.416;37.840;2023-02-13T15:59:15;3.67;;;2.40;;
45909;SDS011;31622;55.416;37.840;2023-02-13T16:01:43;3.67;;;2.17;;
45909;SDS011;31622;55.416;37.840;2023-02-13T16:04:09;3.92;;;2.30;;
45909;SDS011;31622;55.416;37.840;2023-02-13T16:06:39;6.28;;;2.28;;
45909;SDS011;31622;55.416;37.840;2023-02-13T16:09:06;4.18;;;2.30;;
45909;SDS011;31622;55.416;37.840;2023-02-13T16:11:43;5.03;;;2.42;;
45909;SDS011;31622;55.416;37.840;2023-02-13T16:14:16;4.57;;;2.55;;
45909;SDS011;31622;55.416;37.840;2023-02-13T16:16:54;4.38;;;2.60;;
45909;SDS011;31622;55.416;37.840;2023-02-13T16:21:57;4.30;;;2.38;;
45909;SDS011;31622;55.416;37.840;2023-02-13T16:24:26;4.82;;;2.63;;
45909;SDS011;31622;55.416;37.840;2023-02-13T16:26:52;4.85;;;2.30;;
45909;SDS011;31622;55.416;37.840;2023-02-13T16:29:20;3.58;;;2.22;;
45909;SDS011;31622;55.416;37.840;2023-02-13T16:31:47;4.82;;;2.70;;
45909;SDS011;31622;55.416;37.840;2023-02-13T16:36:45;3.07;;;2.20;;
45909;SDS011;31622;55.416;37.840;2023-02-13T16:39:16;2.92;;;1.80;;
45909;SDS011;31622;55.416;37.840;2023-02-13T16:41:44;3.67;;;1.92;;
45909;SDS011;31622;55.416;37.840;2023-02-13T16:47:05;3.72;;;1.70;;
45909;SDS011;31622;55.416;37.840;2023-02-13T16:49:57;3.50;;;2.13;;
45909;SDS011;31622;55.416;37.840;2023-02-13T16:52:23;2.85;;;1.80;;
45909;SDS011;31622;55.416;37.840;2023-02-13T16:54:54;3.63;;;1.63;;
45909;SDS011;31622;55.416;37.840;2023-02-13T16:59:54;4.50;;;2.55;;
45909;SDS011;31622;55.416;37.840;2023-02-13T17:02:48;3.83;;;1.80;;
45909;SDS011;31622;55.416;37.840;2023-02-13T17:05:19;3.35;;;2.13;;
45909;SDS011;31622;55.416;37.840;2023-02-13T17:07:50;2.70;;;1.67;;
45909;SDS011;31622;55.416;37.840;2023-02-13T17:10:24;3.08;;;2.00;;
45909;SDS011;31622;55.416;37.840;2023-02-13T17:12:52;3.08;;;1.80;;
45909;SDS011;31622;55.416;37.840;2023-02-13T17:15:20;4.82;;;1.70;;
45909;SDS011;31622;55.416;37.840;2023-02-13T17:17:48;3.83;;;1.40;;
45909;SDS011;31622;55.416;37.840;2023-02-13T17:20:16;4.03;;;1.80;;
45909;SDS011;31622;55.416;37.840;2023-02-13T17:22:52;4.05;;;1.85;;
45909;SDS011;31622;55.416;37.840;2023-02-13T17:25:22;4.85;;;1.92;;
45909;SDS011;31622;55.416;37.840;2023-02-13T17:27:58;3.78;;;1.60;;
45909;SDS011;31622;55.416;37.840;2023-02-13T17:30:26;3.42;;;2.10;;
45909;SDS011;31622;55.416;37.840;2023-02-13T17:32:56;3.45;;;1.92;;
45909;SDS011;31622;55.416;37.840;2023-02-13T17:35:34;3.05;;;1.80;;
45909;SDS011;31622;55.416;37.840;2023-02-13T17:38:00;3.83;;;1.50;;
45909;SDS011;31622;55.416;37.840;2023-02-13T17:40:26;3.35;;;1.50;;
45909;SDS011;31622;55.416;37.840;2023-02-13T17:42:54;3.55;;;1.83;;
45909;SDS011;31622;55.416;37.840;2023-02-13T17:45:22;3.90;;;2.15;;
45909;SDS011;31622;55.416;37.840;2023-02-13T17:47:49;3.85;;;1.92;;
45909;SDS011;31622;55.416;37.840;2023-02-13T17:50:15;3.85;;;2.28;;
45909;SDS011;31622;55.416;37.840;2023-02-13T17:52:44;4.80;;;2.30;;
45909;SDS011;31622;55.416;37.840;2023-02-13T17:55:24;4.07;;;2.10;;